Time;durP1;ratioP1;P1;durP2;ratioP2;P2;SDS_P1;SDS_P2;PMS_P1;PMS_P2;Temp;Humidity;BMP_temperature;BMP_pressure;BME280_temperature;BME280_humidity;BME280_pressure;Samples;Min_cycle;Max_cycle;Signal;HPM_P1;HPM_P2
2022/02/20 00:00:53;;;;;;;4.20;2.90;;;;;;;2.31;69.50;99601.47;5005423;28;20230;-75
2022/02/20 00:03:22;;;;;;;5.40;2.77;;;;;;;2.32;69.23;99594.38;5005246;28;20211;-75
2022/02/20 00:05:53;;;;;;;6.07;2.63;;;;;;;2.32;69.83;99575.84;5013366;28;20238;-75
2022/02/20 00:08:22;;;;;;;5.97;2.93;;;;;;;2.36;68.72;99567.44;5016054;28;20731;-75
2022/02/20 00:11:17;;;;;;;7.20;2.93;;;;;;;2.36;69.21;99571.88;4996261;28;20251;-74
2022/02/20 00:13:48;;;;;;;6.20;2.60;;;;;;;2.39;69.75;99569.72;4974655;28;20233;-74
2022/02/20 00:16:15;;;;;;;4.53;2.87;;;;;;;2.37;69.27;99558.50;4982665;28;20383;-74
2022/02/20 00:18:49;;;;;;;5.47;2.73;;;;;;;2.31;69.72;99559.16;4973562;28;20228;-75
2022/02/20 00:21:20;;;;;;;5.03;2.87;;;;;;;2.24;70.05;99554.72;4979529;28;20221;-74
2022/02/20 00:24:05;;;;;;;6.90;2.93;;;;;;;2.15;70.54;99541.50;4982467;28;20208;-74
2022/02/20 00:26:36;;;;;;;7.60;3.10;;;;;;;2.17;70.18;99551.94;4973370;28;20605;-75
2022/02/20 00:29:08;;;;;;;5.33;3.10;;;;;;;2.17;70.30;99549.28;4976788;28;20224;-77
2022/02/20 00:31:38;;;;;;;5.90;3.13;;;;;;;2.15;71.30;99548.59;5017721;23;20246;-78
2022/02/20 00:34:05;;;;;;;3.60;2.70;;;;;;;2.06;71.57;99549.63;5012356;28;20224;-77
2022/02/20 00:36:40;;;;;;;4.20;2.70;;;;;;;2.06;72.31;99544.31;5010553;28;20258;-77
2022/02/20 00:39:38;;;;;;;7.97;2.70;;;;;;;2.04;71.50;99535.75;5011096;28;20220;-77
2022/02/20 00:42:08;;;;;;;5.97;3.03;;;;;;;2.05;71.80;99535.56;5003986;23;20645;-77
2022/02/20 00:44:38;;;;;;;5.90;2.83;;;;;;;2.00;71.72;99524.72;4990111;28;20252;-77
2022/02/20 00:47:05;;;;;;;6.70;2.93;;;;;;;2.03;72.64;99523.53;5000621;28;20223;-74
2022/02/20 00:49:32;;;;;;;6.87;2.80;;;;;;;2.09;72.16;99523.69;5025290;28;20500;-74
2022/02/20 00:51:59;;;;;;;4.53;2.77;;;;;;;2.10;72.83;99517.41;5024640;28;20302;-74
2022/02/20 00:54:29;;;;;;;6.17;2.93;;;;;;;2.12;73.12;99527.81;4991253;28;20223;-74
2022/02/20 00:56:59;;;;;;;5.93;2.77;;;;;;;2.17;73.24;99520.22;5013023;28;20249;-75
2022/02/20 00:59:26;;;;;;;5.70;3.10;;;;;;;2.13;73.17;99514.44;5016059;28;20231;-74
2022/02/20 01:02:08;;;;;;;5.77;3.07;;;;;;;2.11;73.58;99505.00;5005021;28;20230;-74
2022/02/20 01:04:35;;;;;;;5.60;2.93;;;;;;;2.10;73.83;99498.91;5006024;28;20235;-74
2022/02/20 01:07:03;;;;;;;4.63;3.20;;;;;;;2.12;73.82;99499.56;5014791;28;20223;-74
2022/02/20 01:09:29;;;;;;;4.20;2.97;;;;;;;2.10;73.67;99498.09;5016185;28;20213;-74
2022/02/20 01:11:59;;;;;;;5.20;2.73;;;;;;;2.06;74.00;99497.59;5012688;28;20237;-75
2022/02/20 01:14:26;;;;;;;5.33;2.80;;;;;;;1.98;74.98;99496.78;5011831;28;20229;-74
2022/02/20 01:16:53;;;;;;;4.27;2.87;;;;;;;1.91;74.64;99490.53;5004188;28;20298;-75
2022/02/20 01:19:20;;;;;;;4.57;3.10;;;;;;;1.96;74.13;99502.22;5006505;28;20231;-75
2022/02/20 01:21:49;;;;;;;5.70;3.03;;;;;;;1.83;75.10;99499.28;5004399;28;20230;-74
2022/02/20 01:24:24;;;;;;;5.10;2.83;;;;;;;1.73;76.08;99499.44;5010967;28;20233;-74
2022/02/20 01:26:51;;;;;;;6.07;3.20;;;;;;;1.65;76.30;99491.53;5009901;28;20227;-74
2022/02/20 01:29:23;;;;;;;6.90;2.90;;;;;;;1.58;77.63;99479.19;5012235;28;20226;-74
2022/02/20 01:31:58;;;;;;;4.73;2.63;;;;;;;1.62;77.12;99488.41;5010073;28;20322;-74
2022/02/20 01:34:25;;;;;;;5.77;2.80;;;;;;;1.58;77.48;99497.66;5010636;28;20250;-74
2022/02/20 01:37:15;;;;;;;4.70;2.73;;;;;;;1.51;78.73;99492.19;5010483;28;20237;-75
2022/02/20 01:39:42;;;;;;;4.80;2.97;;;;;;;1.48;79.13;99494.34;5011400;28;20215;-75
2022/02/20 01:42:18;;;;;;;4.60;2.87;;;;;;;1.42;79.66;99481.81;5008403;28;20249;-74
2022/02/20 01:44:46;;;;;;;4.13;2.73;;;;;;;1.45;79.32;99481.47;5017008;28;20215;-75
2022/02/20 01:47:14;;;;;;;3.97;2.93;;;;;;;1.45;79.00;99484.09;5003695;28;20260;-74
2022/02/20 01:49:56;;;;;;;4.97;2.60;;;;;;;1.44;78.26;99483.31;4991110;28;20246;-74
2022/02/20 01:52:36;;;;;;;5.00;2.40;;;;;;;1.42;78.75;99466.78;5010268;28;20234;-75
2022/02/20 01:55:07;;;;;;;3.73;2.20;;;;;;;1.45;78.25;99460.34;5000625;28;20216;-75
2022/02/20 01:58:09;;;;;;;7.03;2.70;;;;;;;1.38;79.17;99469.94;4999045;28;20227;-75
2022/02/20 02:00:56;;;;;;;4.33;2.47;;;;;;;1.40;78.53;99463.47;5003491;28;20215;-74
2022/02/20 02:03:48;;;;;;;5.00;2.23;;;;;;;1.40;78.99;99473.25;5009763;28;20231;-75
2022/02/20 02:06:31;;;;;;;4.30;2.07;;;;;;;1.36;78.54;99478.00;5011672;28;20262;-75
2022/02/20 02:09:03;;;;;;;4.63;2.27;;;;;;;1.31;79.07;99472.38;5014918;28;20261;-74
2022/02/20 02:12:06;;;;;;;4.27;2.40;;;;;;;1.25;79.49;99479.16;5025940;28;20231;-74
2022/02/20 02:15:14;;;;;;;3.90;2.20;;;;;;;1.28;79.72;99485.91;5017239;28;20245;-74
2022/02/20 02:18:11;;;;;;;4.90;2.53;;;;;;;1.32;79.24;99477.50;5001959;28;20231;-75
2022/02/20 02:21:10;;;;;;;4.60;2.30;;;;;;;1.33;78.51;99475.69;5008448;28;20238;-74
2022/02/20 02:23:51;;;;;;;3.77;2.03;;;;;;;1.21;80.08;99482.31;4991739;28;20247;-75
2022/02/20 02:26:41;;;;;;;3.77;2.30;;;;;;;1.10;81.22;99469.41;5016161;23;20535;-74
2022/02/20 02:29:32;;;;;;;5.80;2.40;;;;;;;1.06;82.38;99476.84;4992039;28;20577;-75
2022/02/20 02:32:02;;;;;;;4.27;2.20;;;;;;;0.99;83.23;99475.81;5004803;28;20237;-75
2022/02/20 02:34:30;;;;;;;4.53;2.57;;;;;;;0.99;83.94;99475.00;5009817;28;20230;-75
2022/02/20 02:36:59;;;;;;;4.47;2.47;;;;;;;1.00;83.31;99466.91;5019827;23;20231;-74
2022/02/20 02:39:30;;;;;;;4.43;2.20;;;;;;;1.05;83.91;99464.63;4992112;28;20228;-74
2022/02/20 02:42:03;;;;;;;4.83;2.33;;;;;;;1.12;84.09;99455.06;4993806;28;20244;-74
2022/02/20 02:44:35;;;;;;;4.17;2.00;;;;;;;1.21;82.58;99448.78;4998302;28;20587;-74
2022/02/20 02:47:03;;;;;;;4.63;2.50;;;;;;;1.32;82.52;99460.84;5018579;23;20250;-74
2022/02/20 02:49:33;;;;;;;3.17;1.87;;;;;;;1.39;81.57;99455.75;4993309;28;20215;-75
2022/02/20 02:52:00;;;;;;;5.07;2.37;;;;;;;1.45;79.83;99455.88;5012470;28;20254;-74
2022/02/20 02:54:27;;;;;;;4.67;2.33;;;;;;;1.42;80.37;99453.59;5013343;28;20234;-74
2022/02/20 02:56:56;;;;;;;4.33;2.00;;;;;;;1.44;80.80;99451.63;5004867;28;20235;-74
2022/02/20 02:59:25;;;;;;;5.37;2.00;;;;;;;1.47;80.52;99445.19;5010372;28;20232;-75
2022/02/20 03:01:54;;;;;;;4.83;1.90;;;;;;;1.56;79.88;99450.28;4996807;28;20254;-75
2022/02/20 03:04:25;;;;;;;4.77;1.90;;;;;;;1.59;78.72;99449.94;5010545;28;20614;-74
2022/02/20 03:06:52;;;;;;;2.83;1.80;;;;;;;1.68;78.73;99443.66;5021286;28;20233;-75
2022/02/20 03:09:35;;;;;;;3.37;1.83;;;;;;;1.80;78.40;99451.25;5001773;28;20232;-75
2022/02/20 03:12:08;;;;;;;4.17;1.90;;;;;;;1.83;78.19;99457.00;5016998;28;20223;-74
2022/02/20 03:14:44;;;;;;;3.50;2.50;;;;;;;1.86;78.13;99448.78;5011829;28;20259;-75
2022/02/20 03:17:12;;;;;;;5.10;2.50;;;;;;;1.92;79.38;99445.44;5027447;28;20227;-74
2022/02/20 03:19:38;;;;;;;4.73;2.87;;;;;;;1.94;81.00;99455.84;5029633;28;20218;-74
2022/02/20 03:22:23;;;;;;;4.47;2.90;;;;;;;1.99;81.88;99464.09;5015779;28;20223;-75
2022/02/20 03:24:54;;;;;;;5.97;3.10;;;;;;;2.11;82.70;99446.88;5006141;28;20223;-75
2022/02/20 03:27:26;;;;;;;5.93;3.00;;;;;;;2.29;82.24;99454.59;5012103;28;20219;-75
2022/02/20 03:30:11;;;;;;;4.20;2.83;;;;;;;2.19;83.83;99454.78;5016371;28;20214;-74
2022/02/20 03:32:46;;;;;;;6.47;3.10;;;;;;;2.14;84.99;99443.91;5004403;28;20211;-75
2022/02/20 03:35:26;;;;;;;4.60;2.90;;;;;;;2.25;85.39;99458.56;5014188;28;20618;-74
2022/02/20 03:37:56;;;;;;;4.83;2.93;;;;;;;2.29;85.70;99455.41;5010317;28;20971;-75
2022/02/20 03:40:38;;;;;;;4.67;2.43;;;;;;;2.27;85.33;99462.69;5019630;28;20243;-75
2022/02/20 03:43:08;;;;;;;5.97;2.87;;;;;;;2.21;85.68;99448.31;5006757;28;20658;-75
2022/02/20 03:45:50;;;;;;;3.67;2.50;;;;;;;2.12;86.64;99446.72;5004447;28;20660;-75
2022/02/20 03:48:20;;;;;;;2.90;2.17;;;;;;;2.09;86.89;99441.78;4990803;28;20626;-75
2022/02/20 03:51:00;;;;;;;4.40;2.47;;;;;;;2.07;86.27;99435.81;4996154;28;20237;-75
2022/02/20 03:53:28;;;;;;;3.20;2.90;;;;;;;2.07;86.71;99427.06;5011341;28;20235;-75
2022/02/20 03:56:05;;;;;;;5.27;2.83;;;;;;;2.04;87.52;99417.66;5010889;28;20273;-75
2022/02/20 03:58:38;;;;;;;6.73;2.60;;;;;;;2.05;88.15;99423.78;5007753;28;20234;-75
2022/02/20 04:01:04;;;;;;;3.53;2.70;;;;;;;2.09;89.15;99427.72;4990911;28;20279;-75
2022/02/20 04:03:45;;;;;;;5.03;2.53;;;;;;;2.14;89.68;99422.75;5007057;28;20242;-76
2022/02/20 04:06:13;;;;;;;3.53;2.37;;;;;;;2.15;89.52;99416.47;5006731;28;20219;-75
2022/02/20 04:08:47;;;;;;;4.23;2.70;;;;;;;2.18;88.22;99410.84;5005765;28;20238;-74
2022/02/20 04:11:15;;;;;;;3.97;2.47;;;;;;;2.24;87.92;99414.63;5006290;28;20235;-75
2022/02/20 04:13:54;;;;;;;4.30;2.40;;;;;;;2.22;87.64;99410.34;5005402;28;20247;-74
2022/02/20 04:16:41;;;;;;;5.10;2.80;;;;;;;2.24;87.87;99391.63;5005630;28;20230;-75
2022/02/20 04:19:08;;;;;;;5.10;2.93;;;;;;;2.31;87.48;99389.13;5005918;28;20235;-75
2022/02/20 04:21:35;;;;;;;4.20;2.77;;;;;;;2.29;88.97;99393.78;5009055;28;20231;-75
2022/02/20 04:24:28;;;;;;;4.23;2.57;;;;;;;2.35;90.02;99398.38;5016851;28;20219;-75
2022/02/20 04:26:57;;;;;;;5.53;2.90;;;;;;;2.42;91.46;99400.16;5015477;28;20234;-74
2022/02/20 04:29:40;;;;;;;5.93;3.13;;;;;;;2.42;94.05;99413.41;5016599;28;20219;-75
2022/02/20 04:32:29;;;;;;;4.47;3.20;;;;;;;2.48;95.29;99411.84;5016661;28;20246;-74
2022/02/20 04:35:09;;;;;;;4.63;3.40;;;;;;;2.57;98.84;99431.97;5015303;23;20723;-75
2022/02/20 04:37:42;;;;;;;5.97;3.60;;;;;;;2.65;100.00;99429.31;5021274;23;20230;-75
2022/02/20 04:40:13;;;;;;;4.43;3.50;;;;;;;2.72;100.00;99418.84;4990586;28;20262;-74
2022/02/20 04:42:52;;;;;;;5.83;3.53;;;;;;;2.85;100.00;99416.44;5017540;28;20233;-75
2022/02/20 04:45:19;;;;;;;4.53;3.57;;;;;;;3.05;100.00;99399.94;5018128;28;20283;-74
2022/02/20 04:47:52;;;;;;;4.63;3.30;;;;;;;3.26;100.00;99409.88;5012954;28;20238;-75
2022/02/20 04:50:21;;;;;;;5.20;3.27;;;;;;;3.34;100.00;99430.16;5000844;28;20672;-75
2022/02/20 04:52:56;;;;;;;5.50;3.87;;;;;;;3.38;100.00;99412.91;5009001;28;20230;-74
2022/02/20 04:55:32;;;;;;;4.30;3.20;;;;;;;3.46;100.00;99399.56;5012392;28;20258;-75
2022/02/20 04:57:59;;;;;;;4.50;3.20;;;;;;;3.52;100.00;99402.34;5009050;28;20235;-75
2022/02/20 05:00:27;;;;;;;3.77;2.90;;;;;;;3.65;100.00;99399.06;5013601;28;20231;-75
2022/02/20 05:02:59;;;;;;;4.87;3.27;;;;;;;3.72;100.00;99402.66;5001084;28;20262;-75
2022/02/20 05:05:39;;;;;;;4.40;3.00;;;;;;;3.78;98.04;99390.50;5007269;28;20274;-75
2022/02/20 05:08:11;;;;;;;5.00;3.07;;;;;;;3.85;96.08;99394.88;5002710;28;20641;-75
2022/02/20 05:10:40;;;;;;;4.00;2.80;;;;;;;3.88;93.95;99407.75;5021957;28;20268;-75
2022/02/20 05:13:09;;;;;;;4.10;2.77;;;;;;;3.93;92.72;99413.34;5010162;28;20261;-75
2022/02/20 05:15:40;;;;;;;4.27;2.83;;;;;;;3.93;92.36;99417.81;5008253;28;20231;-75
2022/02/20 05:18:10;;;;;;;3.07;2.60;;;;;;;3.92;91.47;99411.69;5009539;28;20223;-77
2022/02/20 05:20:42;;;;;;;3.70;2.60;;;;;;;3.92;91.84;99418.81;5008194;28;20282;-78
2022/02/20 05:23:14;;;;;;;4.00;3.10;;;;;;;3.93;92.07;99413.34;5001712;28;20318;-77
2022/02/20 05:25:40;;;;;;;5.93;2.90;;;;;;;3.99;91.08;99409.16;5014687;23;20228;-77
2022/02/20 05:28:07;;;;;;;4.97;3.10;;;;;;;4.00;90.02;99400.19;4977211;28;20219;-77
2022/02/20 05:30:42;;;;;;;5.00;2.80;;;;;;;4.04;89.62;99421.84;5014448;28;20233;-77
2022/02/20 05:33:22;;;;;;;3.33;2.47;;;;;;;3.99;89.99;99403.84;5011795;28;20284;-77
2022/02/20 05:35:51;;;;;;;3.90;3.17;;;;;;;4.00;89.41;99400.19;5018491;28;20647;-77
2022/02/20 05:38:28;;;;;;;24.43;18.23;;;;;;;4.06;88.94;99407.41;5011467;28;20270;-77
2022/02/20 05:41:00;;;;;;;22.30;16.30;;;;;;;4.11;88.28;99401.53;5004066;28;20234;-78
2022/02/20 05:43:29;;;;;;;72.47;48.20;;;;;;;4.07;88.22;99411.69;5003803;28;20239;-77
2022/02/20 05:45:55;;;;;;;9.47;7.27;;;;;;;4.03;89.29;99409.59;5014160;23;20215;-77
2022/02/20 05:48:29;;;;;;;4.00;3.30;;;;;;;4.00;88.90;99434.66;4971713;28;20508;-77
2022/02/20 05:51:22;;;;;;;4.77;3.17;;;;;;;3.99;89.50;99414.44;4983620;28;20227;-77
2022/02/20 05:54:04;;;;;;;3.97;3.00;;;;;;;3.92;89.59;99432.06;4986010;28;20240;-77
2022/02/20 05:56:30;;;;;;;3.90;3.10;;;;;;;3.91;89.77;99436.59;4984750;28;20274;-77
2022/02/20 05:59:04;;;;;;;4.37;2.80;;;;;;;3.95;88.83;99429.91;4997439;28;20632;-77
2022/02/20 06:01:32;;;;;;;4.20;3.43;;;;;;;4.02;87.73;99440.59;4986102;28;20212;-78
2022/02/20 06:04:04;;;;;;;2.73;2.33;;;;;;;4.16;84.88;99450.38;4987662;28;20227;-77
2022/02/20 06:06:56;;;;;;;3.13;2.00;;;;;;;4.14;80.90;99439.16;4985192;28;20232;-77
2022/02/20 06:09:46;;;;;;;3.57;1.90;;;;;;;4.15;78.86;99453.22;4982152;28;20255;-77
2022/02/20 06:12:22;;;;;;;2.80;1.90;;;;;;;4.27;76.87;99457.88;4994785;23;20527;-77
2022/02/20 06:15:39;;;;;;;3.10;1.60;;;;;;;4.31;75.23;99476.91;5008828;28;20227;-77
2022/02/20 06:18:37;;;;;;;2.30;1.50;;;;;;;4.39;71.13;99474.16;5010948;28;20367;-77
2022/02/20 06:21:35;;;;;;;2.57;1.40;;;;;;;4.48;69.72;99482.84;5005246;28;20224;-77
2022/02/20 06:24:22;;;;;;;4.47;2.23;;;;;;;4.55;67.30;99478.44;5008989;28;20650;-77
2022/02/20 06:27:05;;;;;;;3.73;2.30;;;;;;;4.70;65.95;99482.75;4994894;28;20262;-77
2022/02/20 06:29:35;;;;;;;2.63;1.50;;;;;;;4.81;64.13;99500.00;5008678;28;20218;-77
2022/02/20 06:32:06;;;;;;;2.37;1.63;;;;;;;4.97;63.76;99488.34;5017408;23;20226;-78
2022/02/20 06:34:35;;;;;;;2.40;1.57;;;;;;;4.98;63.10;99497.97;5010570;28;20338;-77
2022/02/20 06:37:19;;;;;;;2.40;1.47;;;;;;;5.07;62.99;99502.97;5010964;28;20239;-77
2022/02/20 06:39:47;;;;;;;2.60;1.60;;;;;;;5.15;62.60;99489.56;5008724;28;20540;-77
2022/02/20 06:42:18;;;;;;;2.80;1.40;;;;;;;5.18;62.34;99497.16;5012509;28;20253;-77
2022/02/20 06:44:52;;;;;;;2.30;1.80;;;;;;;5.20;63.31;99504.94;5020769;22;20241;-76
2022/02/20 06:47:41;;;;;;;4.93;3.30;;;;;;;5.30;62.72;99498.31;4997503;28;20254;-77
2022/02/20 06:50:34;;;;;;;3.27;2.90;;;;;;;5.40;62.31;99516.63;4996713;28;20227;-77
2022/02/20 06:53:20;;;;;;;2.67;2.00;;;;;;;5.52;61.65;99512.44;5084058;23;20230;-77
2022/02/20 06:56:08;;;;;;;4.57;1.60;;;;;;;5.66;60.44;99492.94;5010221;28;20242;-77
2022/02/20 06:58:40;;;;;;;1.53;1.13;;;;;;;5.86;59.13;99474.50;5013989;28;20302;-77
2022/02/20 07:01:09;;;;;;;1.00;0.90;;;;;;;6.00;57.84;99484.25;5012211;28;20235;-77
2022/02/20 07:03:58;;;;;;;3.13;1.00;;;;;;;6.14;57.66;99483.31;5005645;28;20231;-77
2022/02/20 07:06:27;;;;;;;1.13;0.83;;;;;;;6.20;56.13;99487.06;5025404;28;20233;-77
2022/02/20 07:09:04;;;;;;;1.67;0.90;;;;;;;6.32;55.79;99489.97;5036859;22;20314;-77
2022/02/20 07:11:42;;;;;;;2.43;1.00;;;;;;;6.33;55.64;99489.78;5029606;23;20246;-77
2022/02/20 07:14:09;;;;;;;1.63;0.70;;;;;;;6.46;54.57;99487.19;5011580;28;20270;-77
2022/02/20 07:16:42;;;;;;;1.47;0.73;;;;;;;6.60;55.03;99482.75;5012922;28;20238;-77
2022/02/20 07:19:16;;;;;;;2.43;0.70;;;;;;;6.79;56.17;99483.88;5027970;23;20227;-77
2022/02/20 07:21:45;;;;;;;2.50;1.30;;;;;;;6.85;55.99;99488.41;5012693;28;20246;-77
2022/02/20 07:24:13;;;;;;;1.67;1.07;;;;;;;7.05;56.25;99494.63;5011596;28;20219;-77
2022/02/20 07:27:02;;;;;;;1.93;1.30;;;;;;;7.15;55.77;99488.91;5050911;23;20240;-76
2022/02/20 07:29:29;;;;;;;1.17;0.80;;;;;;;7.21;56.60;99493.44;4998142;28;20231;-77
2022/02/20 07:32:11;;;;;;;1.73;0.90;;;;;;;7.33;56.43;99511.28;4979833;28;20216;-77
2022/02/20 07:34:43;;;;;;;2.27;0.80;;;;;;;7.42;56.84;99514.59;5013700;28;20196;-77
2022/02/20 07:37:14;;;;;;;1.50;1.40;;;;;;;7.47;57.40;99510.31;5013068;28;20302;-77
2022/02/20 07:39:41;;;;;;;1.47;0.87;;;;;;;7.65;57.10;99499.03;5022003;28;20281;-77
2022/02/20 07:42:08;;;;;;;1.10;0.80;;;;;;;7.79;56.87;99510.56;5017890;28;20738;-78
2022/02/20 07:44:54;;;;;;;0.90;0.70;;;;;;;8.03;56.81;99501.94;5063215;23;20221;-78
2022/02/20 07:47:59;;;;;;;0.90;0.60;;;;;;;8.25;56.25;99502.53;4983620;28;20277;-77
2022/02/20 07:50:34;;;;;;;1.20;0.60;;;;;;;8.40;55.35;99495.97;5017544;23;20223;-77
2022/02/20 07:53:11;;;;;;;3.30;0.80;;;;;;;8.63;56.08;99516.84;5028416;28;20230;-77
2022/02/20 07:55:50;;;;;;;0.50;0.50;;;;;;;8.68;55.93;99505.53;5031973;28;20234;-77
2022/02/20 07:58:21;;;;;;;2.33;0.60;;;;;;;8.71;55.91;99510.47;5031651;28;20203;-77
2022/02/20 08:00:57;;;;;;;0.90;0.50;;;;;;;8.69;56.18;99501.84;5029407;28;20219;-77
2022/02/20 08:03:24;;;;;;;0.60;0.50;;;;;;;8.74;56.41;99497.50;5030125;28;20253;-77
2022/02/20 08:05:55;;;;;;;0.53;0.53;;;;;;;8.77;57.75;99510.44;5061188;23;20243;-77
2022/02/20 08:08:41;;;;;;;0.87;0.40;;;;;;;8.86;56.87;99527.06;5008965;28;20238;-77
2022/02/20 08:11:08;;;;;;;0.70;0.40;;;;;;;9.00;56.63;99501.94;5007310;28;20246;-77
2022/02/20 08:13:39;;;;;;;1.27;0.67;;;;;;;9.10;56.48;99506.81;5009970;28;20239;-77
2022/02/20 08:16:40;;;;;;;0.63;0.60;;;;;;;9.20;55.58;99501.84;5003594;28;20230;-77
2022/02/20 08:19:11;;;;;;;1.53;0.70;;;;;;;9.57;54.42;99508.19;5041201;23;20253;-77
2022/02/20 08:21:49;;;;;;;1.33;0.50;;;;;;;9.85;54.47;99502.44;5047233;23;20258;-77
2022/02/20 08:24:18;;;;;;;1.00;0.60;;;;;;;10.04;53.46;99490.75;5030475;23;20227;-77
2022/02/20 08:27:00;;;;;;;0.60;0.40;;;;;;;10.21;53.24;99499.09;5050555;28;20197;-77
2022/02/20 08:29:27;;;;;;;0.40;0.40;;;;;;;10.50;52.16;99498.38;5031879;28;20249;-77
2022/02/20 08:31:57;;;;;;;1.33;0.50;;;;;;;10.53;52.45;99490.72;5047089;28;20615;-77
2022/02/20 08:34:24;;;;;;;2.20;0.60;;;;;;;10.91;51.29;99482.47;5019867;28;20257;-77
2022/02/20 08:36:54;;;;;;;1.23;0.50;;;;;;;11.09;50.33;99500.38;5046901;28;20252;-77
2022/02/20 08:39:21;;;;;;;1.93;1.70;;;;;;;11.23;50.13;99504.53;5045397;28;20265;-77
2022/02/20 08:41:48;;;;;;;1.37;0.70;;;;;;;11.46;49.48;99491.19;5048857;28;20206;-77
2022/02/20 08:44:15;;;;;;;1.03;0.60;;;;;;;11.48;48.63;99486.41;5048814;28;20503;-77
2022/02/20 08:46:45;;;;;;;1.20;0.50;;;;;;;11.74;48.59;99493.28;5049555;28;20252;-77
2022/02/20 08:49:14;;;;;;;0.73;0.57;;;;;;;11.68;48.33;99488.78;5048678;28;20222;-77
2022/02/20 08:51:44;;;;;;;2.50;1.00;;;;;;;11.59;48.49;99486.66;5048530;28;20225;-77
2022/02/20 08:54:14;;;;;;;1.10;0.70;;;;;;;11.54;48.93;99495.41;5048705;28;20317;-77
2022/02/20 08:56:55;;;;;;;1.20;0.60;;;;;;;11.69;48.59;99484.25;5050880;28;20222;-77
2022/02/20 08:59:29;;;;;;;0.90;0.60;;;;;;;11.84;48.67;99490.03;5045076;28;20281;-77
2022/02/20 09:01:58;;;;;;;0.70;0.60;;;;;;;11.80;48.77;99496.91;5051904;28;20294;-77
2022/02/20 09:04:39;;;;;;;1.23;0.53;;;;;;;11.78;49.41;99481.03;5051494;28;20256;-77
2022/02/20 09:07:41;;;;;;;1.03;0.50;;;;;;;11.53;48.65;99472.31;5041863;28;20233;-79
2022/02/20 09:10:31;;;;;;;1.40;0.70;;;;;;;11.57;49.31;99454.69;5052548;28;20237;-77
2022/02/20 09:12:58;;;;;;;1.23;0.53;;;;;;;11.54;49.16;99454.34;5052346;28;20229;-77
2022/02/20 09:15:25;;;;;;;1.23;0.60;;;;;;;11.67;49.36;99451.44;5047339;28;20212;-77
2022/02/20 09:18:05;;;;;;;10.90;5.73;;;;;;;11.76;49.43;99447.41;5052394;28;20245;-77
2022/02/20 09:21:18;;;;;;;6.90;3.47;;;;;;;11.98;48.67;99451.19;5034734;28;20218;-78
2022/02/20 09:24:10;;;;;;;1.37;0.70;;;;;;;12.47;47.51;99451.72;5045175;28;20218;-77
2022/02/20 09:26:59;;;;;;;1.00;0.70;;;;;;;12.64;46.43;99450.78;5052915;28;20508;-78
2022/02/20 09:29:33;;;;;;;1.77;0.60;;;;;;;12.51;46.54;99467.16;5051786;23;20255;-78
2022/02/20 09:32:05;;;;;;;1.83;0.70;;;;;;;12.58;45.82;99458.97;5024371;28;20222;-77
2022/02/20 09:34:36;;;;;;;1.50;0.87;;;;;;;12.69;45.67;99458.94;5016987;28;20660;-79
2022/02/20 09:37:04;;;;;;;2.60;0.60;;;;;;;12.65;45.87;99456.94;5013382;28;20317;-80
2022/02/20 09:39:32;;;;;;;0.93;0.70;;;;;;;12.65;46.14;99456.94;5013527;28;20226;-80
2022/02/20 09:42:00;;;;;;;1.20;0.63;;;;;;;12.45;45.87;99446.59;5013136;28;20258;-80
2022/02/20 09:44:29;;;;;;;1.10;0.60;;;;;;;12.94;45.13;99452.44;5014696;28;20321;-78
2022/02/20 09:46:56;;;;;;;1.60;0.70;;;;;;;12.97;45.77;99443.91;5013271;28;20226;-78
2022/02/20 09:49:27;;;;;;;1.53;0.60;;;;;;;12.68;45.62;99449.25;5013554;28;20235;-79
2022/02/20 09:51:54;;;;;;;0.90;0.70;;;;;;;12.62;45.33;99447.50;5013430;28;20257;-79
2022/02/20 09:54:22;;;;;;;2.07;1.20;;;;;;;12.56;45.58;99463.75;5131601;23;20210;-77
2022/02/20 09:56:49;;;;;;;0.73;0.60;;;;;;;12.34;45.99;99468.91;5014484;28;20218;-79
2022/02/20 09:59:16;;;;;;;1.37;0.80;;;;;;;12.43;45.57;99464.81;5016796;28;20232;-79
2022/02/20 10:02:09;;;;;;;0.73;0.50;;;;;;;12.31;45.82;99464.03;5033782;28;20229;-80
2022/02/20 10:04:54;;;;;;;2.13;0.70;;;;;;;12.46;45.96;99453.59;5031021;28;20237;-80
2022/02/20 10:07:33;;;;;;;1.37;0.67;;;;;;;12.24;45.55;99449.88;5032644;28;20240;-79
2022/02/20 10:10:16;;;;;;;1.13;0.70;;;;;;;12.38;45.86;99448.59;5034115;28;20284;-77
2022/02/20 10:12:44;;;;;;;0.80;0.57;;;;;;;12.74;45.28;99453.66;5033485;28;20214;-80
2022/02/20 10:15:24;;;;;;;1.53;0.73;;;;;;;12.74;44.63;99444.78;5016966;28;20312;-80
2022/02/20 10:17:57;;;;;;;1.13;0.70;;;;;;;13.18;44.20;99444.06;5032277;28;20352;-77
2022/02/20 10:20:44;;;;;;;1.67;0.70;;;;;;;13.08;43.64;99437.66;5030846;28;20236;-79
2022/02/20 10:23:37;;;;;;;1.43;0.60;;;;;;;13.57;42.96;99450.44;5033748;28;20247;-81
2022/02/20 10:26:42;;;;;;;0.73;0.60;;;;;;;13.50;42.87;99440.88;5016640;28;20225;-76
2022/02/20 10:29:28;;;;;;;1.77;0.60;;;;;;;13.35;43.26;99454.03;5033398;28;20311;-78
2022/02/20 10:31:55;;;;;;;1.63;0.77;;;;;;;13.18;42.67;99446.78;5034440;28;20230;-80
2022/02/20 10:34:24;;;;;;;1.43;0.63;;;;;;;13.26;42.53;99439.34;5032953;28;20265;-79
2022/02/20 10:36:57;;;;;;;0.97;0.50;;;;;;;13.50;42.03;99430.94;5031957;28;20226;-79
2022/02/20 10:39:32;;;;;;;0.80;0.67;;;;;;;13.53;42.55;99430.44;5032519;28;20537;-80
2022/02/20 10:42:21;;;;;;;1.57;0.70;;;;;;;13.64;41.73;99426.84;5016899;28;20235;-80
2022/02/20 10:45:00;;;;;;;1.13;0.57;;;;;;;13.80;40.91;99427.09;5031390;28;20236;-80
2022/02/20 10:47:31;;;;;;;0.90;0.60;;;;;;;13.63;41.05;99408.25;5034178;28;20233;-80
2022/02/20 10:50:16;;;;;;;2.10;0.60;;;;;;;13.51;42.14;99424.47;5033508;28;20582;-81
2022/02/20 10:52:42;;;;;;;0.90;0.60;;;;;;;13.72;41.31;99409.47;5036091;28;20228;-81
2022/02/20 10:55:13;;;;;;;0.93;0.57;;;;;;;13.70;41.38;99400.84;5020152;28;20589;-80
2022/02/20 10:57:49;;;;;;;0.80;0.53;;;;;;;13.81;41.34;99399.13;5038220;28;20632;-79
2022/02/20 11:00:19;;;;;;;1.40;0.60;;;;;;;14.00;40.37;99403.97;5037902;28;20234;-80
2022/02/20 11:02:46;;;;;;;0.97;0.50;;;;;;;14.15;39.71;99400.69;5021910;28;20222;-78
2022/02/20 11:05:12;;;;;;;1.03;0.70;;;;;;;14.15;39.66;99402.56;5038501;28;20230;-80
2022/02/20 11:07:40;;;;;;;1.13;0.53;;;;;;;14.02;40.56;99383.00;5038419;28;20238;-80
2022/02/20 11:10:12;;;;;;;0.83;0.60;;;;;;;13.79;40.54;99399.38;5038326;28;20284;-80
2022/02/20 11:12:39;;;;;;;1.20;0.50;;;;;;;13.96;40.90;99405.53;5038223;28;20617;-81
2022/02/20 11:15:08;;;;;;;1.70;0.63;;;;;;;13.78;40.03;99396.91;5021764;28;20317;-80
2022/02/20 11:17:36;;;;;;;0.53;0.40;;;;;;;13.73;39.97;99405.72;5038090;28;20230;-80
2022/02/20 11:20:06;;;;;;;0.97;0.67;;;;;;;14.09;40.03;99404.41;5021443;28;20227;-81
2022/02/20 11:22:37;;;;;;;1.17;0.50;;;;;;;14.26;38.79;99385.50;5037956;28;20313;-81
2022/02/20 11:25:08;;;;;;;0.70;0.60;;;;;;;14.48;38.98;99389.84;5037539;28;20229;-77
2022/02/20 11:27:42;;;;;;;0.60;0.40;;;;;;;14.39;38.56;99385.97;5039280;28;20514;-80
2022/02/20 11:30:10;;;;;;;0.77;0.50;;;;;;;14.72;38.56;99397.69;5037391;28;20632;-78
2022/02/20 11:32:38;;;;;;;0.93;0.50;;;;;;;14.85;37.87;99375.72;5039048;28;20230;-79
2022/02/20 11:35:09;;;;;;;0.83;0.70;;;;;;;15.21;37.56;99387.72;5037744;28;20275;-78
2022/02/20 11:37:46;;;;;;;0.60;0.50;;;;;;;15.03;36.68;99382.66;5037739;28;20305;-79
2022/02/20 11:40:16;;;;;;;0.80;0.57;;;;;;;15.04;36.88;99368.09;5020546;28;20229;-77
2022/02/20 11:42:58;;;;;;;1.37;0.63;;;;;;;14.81;37.37;99366.50;5037284;28;20698;-80
2022/02/20 11:45:26;;;;;;;0.83;0.63;;;;;;;14.78;37.18;99362.44;5036975;28;20230;-80
2022/02/20 11:48:03;;;;;;;1.90;0.80;;;;;;;14.62;37.40;99365.22;5037451;28;20262;-78
2022/02/20 11:50:34;;;;;;;1.20;0.67;;;;;;;14.73;37.08;99378.56;5038719;28;20256;-78
2022/02/20 11:53:10;;;;;;;0.97;0.53;;;;;;;14.45;37.72;99365.28;5021199;28;20253;-77
2022/02/20 11:55:38;;;;;;;0.60;0.50;;;;;;;14.54;37.62;99369.19;5020950;28;20229;-76
2022/02/20 11:58:16;;;;;;;0.90;0.50;;;;;;;14.83;37.33;99372.47;5037963;28;20312;-78
2022/02/20 12:01:03;;;;;;;0.70;0.60;;;;;;;14.94;37.12;99372.31;5021215;28;20556;-79
2022/02/20 12:03:42;;;;;;;0.50;0.50;;;;;;;15.03;36.20;99363.75;5038133;28;20672;-79
2022/02/20 12:06:17;;;;;;;0.80;0.60;;;;;;;15.10;36.30;99372.47;5037419;28;20237;-78
2022/02/20 12:08:56;;;;;;;0.90;0.43;;;;;;;14.85;35.50;99356.84;5021019;28;20531;-77
2022/02/20 12:11:44;;;;;;;1.03;0.60;;;;;;;14.85;35.73;99354.97;5005193;28;20225;-78
2022/02/20 12:14:25;;;;;;;0.93;0.63;;;;;;;14.70;36.58;99335.09;5037703;28;20249;-77
2022/02/20 12:17:01;;;;;;;0.57;0.57;;;;;;;14.56;37.30;99353.53;5037337;28;20241;-77